sensor_id;sensor_type;location;lat;lon;timestamp;P1;durP1;ratioP1;P2;durP2;ratioP2
4794;SDS011;2411;47.060;15.064;2022-09-09T00:04:37;2.00;;;0.80;;
4794;SDS011;2411;47.060;15.064;2022-09-09T00:07:13;1.07;;;0.90;;
4794;SDS011;2411;47.060;15.064;2022-09-09T00:15:45;0.70;;;0.70;;
4794;SDS011;2411;47.060;15.064;2022-09-09T00:21:05;9.10;;;0.70;;
4794;SDS011;2411;47.060;15.064;2022-09-09T00:23:35;4.67;;;0.97;;
4794;SDS011;2411;47.060;15.064;2022-09-09T00:31:48;1.90;;;0.60;;
4794;SDS011;2411;47.060;15.064;2022-09-09T00:34:20;0.50;;;0.50;;
4794;SDS011;2411;47.060;15.064;2022-09-09T00:36:50;1.97;;;0.60;;
4794;SDS011;2411;47.060;15.064;2022-09-09T00:39:34;0.80;;;0.70;;
4794;SDS011;2411;47.060;15.064;2022-09-09T00:42:13;0.53;;;0.53;;
4794;SDS011;2411;47.060;15.064;2022-09-09T00:50:08;0.87;;;0.60;;
4794;SDS011;2411;47.060;15.064;2022-09-09T00:52:46;1.90;;;0.60;;
4794;SDS011;2411;47.060;15.064;2022-09-09T00:55:44;1.00;;;0.60;;
4794;SDS011;2411;47.060;15.064;2022-09-09T00:58:19;0.50;;;0.50;;
4794;SDS011;2411;47.060;15.064;2022-09-09T01:00:46;2.40;;;1.10;;
4794;SDS011;2411;47.060;15.064;2022-09-09T01:12:35;0.57;;;0.57;;
4794;SDS011;2411;47.060;15.064;2022-09-09T01:20:12;0.70;;;0.60;;
4794;SDS011;2411;47.060;15.064;2022-09-09T01:28:30;0.70;;;0.70;;
4794;SDS011;2411;47.060;15.064;2022-09-09T01:31:02;2.00;;;0.60;;
4794;SDS011;2411;47.060;15.064;2022-09-09T01:33:32;0.70;;;0.70;;
4794;SDS011;2411;47.060;15.064;2022-09-09T01:36:01;1.00;;;0.83;;
4794;SDS011;2411;47.060;15.064;2022-09-09T01:38:32;0.60;;;0.60;;
4794;SDS011;2411;47.060;15.064;2022-09-09T01:41:02;1.33;;;0.50;;
4794;SDS011;2411;47.060;15.064;2022-09-09T01:43:29;2.37;;;0.67;;
4794;SDS011;2411;47.060;15.064;2022-09-09T01:45:58;0.80;;;0.80;;
4794;SDS011;2411;47.060;15.064;2022-09-09T01:48:27;0.90;;;0.70;;
4794;SDS011;2411;47.060;15.064;2022-09-09T01:50:55;1.60;;;0.50;;
4794;SDS011;2411;47.060;15.064;2022-09-09T01:53:22;3.17;;;0.70;;
4794;SDS011;2411;47.060;15.064;2022-09-09T02:03:56;2.77;;;0.80;;
4794;SDS011;2411;47.060;15.064;2022-09-09T02:06:28;1.23;;;0.70;;
4794;SDS011;2411;47.060;15.064;2022-09-09T02:09:00;1.10;;;1.00;;
4794;SDS011;2411;47.060;15.064;2022-09-09T02:11:31;0.70;;;0.60;;
4794;SDS011;2411;47.060;15.064;2022-09-09T02:14:05;1.43;;;0.70;;
4794;SDS011;2411;47.060;15.064;2022-09-09T02:16:55;1.90;;;0.60;;
4794;SDS011;2411;47.060;15.064;2022-09-09T02:19:31;0.70;;;0.67;;
4794;SDS011;2411;47.060;15.064;2022-09-09T02:22:00;0.60;;;0.60;;
4794;SDS011;2411;47.060;15.064;2022-09-09T02:24:32;1.90;;;0.80;;
4794;SDS011;2411;47.060;15.064;2022-09-09T02:27:02;3.60;;;0.70;;
4794;SDS011;2411;47.060;15.064;2022-09-09T02:29:36;2.00;;;0.70;;
4794;SDS011;2411;47.060;15.064;2022-09-09T02:32:17;2.07;;;0.60;;
4794;SDS011;2411;47.060;15.064;2022-09-09T02:34:49;0.73;;;0.60;;
4794;SDS011;2411;47.060;15.064;2022-09-09T02:37:37;0.93;;;0.60;;
4794;SDS011;2411;47.060;15.064;2022-09-09T02:40:06;3.17;;;0.83;;
4794;SDS011;2411;47.060;15.064;2022-09-09T02:42:42;2.13;;;0.97;;
4794;SDS011;2411;47.060;15.064;2022-09-09T02:45:12;0.87;;;0.60;;
4794;SDS011;2411;47.060;15.064;2022-09-09T02:50:16;1.10;;;1.00;;
4794;SDS011;2411;47.060;15.064;2022-09-09T02:52:51;0.80;;;0.80;;
4794;SDS011;2411;47.060;15.064;2022-09-09T02:57:52;5.40;;;1.70;;
4794;SDS011;2411;47.060;15.064;2022-09-09T03:00:24;4.23;;;0.80;;
4794;SDS011;2411;47.060;15.064;2022-09-09T03:02:52;2.07;;;0.90;;
4794;SDS011;2411;47.060;15.064;2022-09-09T03:05:20;0.70;;;0.70;;
4794;SDS011;2411;47.060;15.064;2022-09-09T03:07:47;0.80;;;0.80;;
4794;SDS011;2411;47.060;15.064;2022-09-09T03:10:16;1.17;;;0.90;;
4794;SDS011;2411;47.060;15.064;2022-09-09T03:12:43;2.00;;;0.80;;
4794;SDS011;2411;47.060;15.064;2022-09-09T03:15:10;1.80;;;0.70;;
4794;SDS011;2411;47.060;15.064;2022-09-09T03:17:37;0.80;;;0.70;;
4794;SDS011;2411;47.060;15.064;2022-09-09T03:20:04;1.73;;;0.70;;
4794;SDS011;2411;47.060;15.064;2022-09-09T03:22:31;0.83;;;0.67;;
4794;SDS011;2411;47.060;15.064;2022-09-09T03:24:58;3.67;;;0.70;;
4794;SDS011;2411;47.060;15.064;2022-09-09T03:27:25;0.77;;;0.77;;
4794;SDS011;2411;47.060;15.064;2022-09-09T03:29:52;3.97;;;0.90;;
4794;SDS011;2411;47.060;15.064;2022-09-09T03:32:19;2.30;;;0.70;;
4794;SDS011;2411;47.060;15.064;2022-09-09T03:34:48;0.67;;;0.67;;
4794;SDS011;2411;47.060;15.064;2022-09-09T03:37:18;0.90;;;0.73;;
4794;SDS011;2411;47.060;15.064;2022-09-09T03:39:46;1.33;;;0.90;;
4794;SDS011;2411;47.060;15.064;2022-09-09T03:42:13;2.10;;;0.90;;
4794;SDS011;2411;47.060;15.064;2022-09-09T03:44:45;2.20;;;0.70;;
4794;SDS011;2411;47.060;15.064;2022-09-09T03:47:17;0.73;;;0.60;;
4794;SDS011;2411;47.060;15.064;2022-09-09T03:49:45;2.83;;;0.80;;
4794;SDS011;2411;47.060;15.064;2022-09-09T03:52:12;0.60;;;0.60;;
4794;SDS011;2411;47.060;15.064;2022-09-09T03:54:39;0.67;;;0.60;;
4794;SDS011;2411;47.060;15.064;2022-09-09T03:57:07;2.73;;;0.80;;
4794;SDS011;2411;47.060;15.064;2022-09-09T03:59:35;7.57;;;0.80;;
4794;SDS011;2411;47.060;15.064;2022-09-09T04:02:02;2.10;;;0.67;;
4794;SDS011;2411;47.060;15.064;2022-09-09T04:04:29;3.23;;;0.80;;
4794;SDS011;2411;47.060;15.064;2022-09-09T04:06:56;0.70;;;0.70;;
4794;SDS011;2411;47.060;15.064;2022-09-09T04:09:23;2.23;;;0.80;;
4794;SDS011;2411;47.060;15.064;2022-09-09T04:11:50;4.60;;;0.90;;
4794;SDS011;2411;47.060;15.064;2022-09-09T04:14:17;0.90;;;0.70;;
4794;SDS011;2411;47.060;15.064;2022-09-09T04:16:43;4.90;;;0.80;;
4794;SDS011;2411;47.060;15.064;2022-09-09T04:19:11;8.90;;;0.83;;
4794;SDS011;2411;47.060;15.064;2022-09-09T04:21:40;1.00;;;0.70;;
4794;SDS011;2411;47.060;15.064;2022-09-09T04:24:08;1.93;;;0.80;;
4794;SDS011;2411;47.060;15.064;2022-09-09T04:26:35;0.97;;;0.70;;
4794;SDS011;2411;47.060;15.064;2022-09-09T04:29:03;2.43;;;0.70;;
4794;SDS011;2411;47.060;15.064;2022-09-09T04:31:30;0.80;;;0.80;;
4794;SDS011;2411;47.060;15.064;2022-09-09T04:33:57;4.77;;;1.10;;
4794;SDS011;2411;47.060;15.064;2022-09-09T04:36:24;0.70;;;0.70;;
4794;SDS011;2411;47.060;15.064;2022-09-09T04:38:51;3.90;;;0.80;;
4794;SDS011;2411;47.060;15.064;2022-09-09T04:41:18;1.37;;;0.93;;
4794;SDS011;2411;47.060;15.064;2022-09-09T04:43:45;2.13;;;0.60;;
4794;SDS011;2411;47.060;15.064;2022-09-09T04:46:12;1.07;;;0.70;;
4794;SDS011;2411;47.060;15.064;2022-09-09T04:48:39;0.60;;;0.60;;
4794;SDS011;2411;47.060;15.064;2022-09-09T04:51:08;0.80;;;0.80;;
4794;SDS011;2411;47.060;15.064;2022-09-09T04:53:38;3.20;;;0.80;;
4794;SDS011;2411;47.060;15.064;2022-09-09T04:56:07;1.33;;;0.90;;
4794;SDS011;2411;47.060;15.064;2022-09-09T04:58:36;2.93;;;0.80;;
4794;SDS011;2411;47.060;15.064;2022-09-09T05:01:08;1.70;;;0.90;;
4794;SDS011;2411;47.060;15.064;2022-09-09T05:03:37;8.00;;;1.10;;
4794;SDS011;2411;47.060;15.064;2022-09-09T05:06:08;1.33;;;1.23;;
4794;SDS011;2411;47.060;15.064;2022-09-09T05:08:37;2.83;;;1.27;;
4794;SDS011;2411;47.060;15.064;2022-09-09T05:13:45;0.80;;;0.80;;
4794;SDS011;2411;47.060;15.064;2022-09-09T05:16:13;2.37;;;1.10;;
4794;SDS011;2411;47.060;15.064;2022-09-09T05:18:41;0.80;;;0.80;;
4794;SDS011;2411;47.060;15.064;2022-09-09T05:21:17;0.70;;;0.70;;
4794;SDS011;2411;47.060;15.064;2022-09-09T05:23:45;1.33;;;1.23;;
4794;SDS011;2411;47.060;15.064;2022-09-09T05:26:13;1.30;;;0.87;;
4794;SDS011;2411;47.060;15.064;2022-09-09T05:28:43;8.23;;;0.80;;
4794;SDS011;2411;47.060;15.064;2022-09-09T05:31:11;9.17;;;1.10;;
4794;SDS011;2411;47.060;15.064;2022-09-09T05:33:39;2.70;;;1.17;;
4794;SDS011;2411;47.060;15.064;2022-09-09T05:36:19;3.70;;;1.50;;
4794;SDS011;2411;47.060;15.064;2022-09-09T05:38:47;2.47;;;1.00;;
4794;SDS011;2411;47.060;15.064;2022-09-09T05:41:16;3.87;;;1.10;;
4794;SDS011;2411;47.060;15.064;2022-09-09T05:43:43;4.90;;;1.03;;
4794;SDS011;2411;47.060;15.064;2022-09-09T05:46:12;2.60;;;1.10;;
4794;SDS011;2411;47.060;15.064;2022-09-09T05:48:42;0.80;;;0.80;;
4794;SDS011;2411;47.060;15.064;2022-09-09T05:51:16;1.40;;;1.27;;
4794;SDS011;2411;47.060;15.064;2022-09-09T05:53:45;1.67;;;0.90;;
4794;SDS011;2411;47.060;15.064;2022-09-09T05:56:14;5.23;;;0.93;;
4794;SDS011;2411;47.060;15.064;2022-09-09T05:58:43;3.30;;;0.80;;
4794;SDS011;2411;47.060;15.064;2022-09-09T06:01:14;2.50;;;0.90;;
4794;SDS011;2411;47.060;15.064;2022-09-09T06:03:46;3.80;;;1.20;;
4794;SDS011;2411;47.060;15.064;2022-09-09T06:06:15;0.67;;;0.67;;
4794;SDS011;2411;47.060;15.064;2022-09-09T06:08:44;4.97;;;0.97;;
4794;SDS011;2411;47.060;15.064;2022-09-09T06:11:15;2.40;;;0.73;;
4794;SDS011;2411;47.060;15.064;2022-09-09T06:13:53;0.90;;;0.90;;
4794;SDS011;2411;47.060;15.064;2022-09-09T06:16:21;1.33;;;0.97;;
4794;SDS011;2411;47.060;15.064;2022-09-09T06:18:51;1.63;;;0.80;;
4794;SDS011;2411;47.060;15.064;2022-09-09T06:21:19;1.37;;;0.70;;
4794;SDS011;2411;47.060;15.064;2022-09-09T06:23:48;1.60;;;0.80;;
4794;SDS011;2411;47.060;15.064;2022-09-09T06:26:26;1.73;;;1.23;;
4794;SDS011;2411;47.060;15.064;2022-09-09T06:28:56;0.73;;;0.73;;
4794;SDS011;2411;47.060;15.064;2022-09-09T06:31:28;0.67;;;0.67;;
4794;SDS011;2411;47.060;15.064;2022-09-09T06:34:00;1.47;;;0.73;;
4794;SDS011;2411;47.060;15.064;2022-09-09T06:36:28;2.60;;;0.87;;
4794;SDS011;2411;47.060;15.064;2022-09-09T06:38:57;2.67;;;0.70;;
4794;SDS011;2411;47.060;15.064;2022-09-09T06:41:25;0.70;;;0.70;;
4794;SDS011;2411;47.060;15.064;2022-09-09T06:43:53;0.80;;;0.80;;
4794;SDS011;2411;47.060;15.064;2022-09-09T06:46:22;2.90;;;0.83;;
4794;SDS011;2411;47.060;15.064;2022-09-09T06:48:54;0.80;;;0.80;;
4794;SDS011;2411;47.060;15.064;2022-09-09T06:51:22;3.07;;;0.90;;
4794;SDS011;2411;47.060;15.064;2022-09-09T06:53:52;0.87;;;0.70;;
4794;SDS011;2411;47.060;15.064;2022-09-09T06:56:25;0.73;;;0.60;;
4794;SDS011;2411;47.060;15.064;2022-09-09T06:58:58;3.70;;;0.80;;
4794;SDS011;2411;47.060;15.064;2022-09-09T07:01:31;1.60;;;0.80;;
4794;SDS011;2411;47.060;15.064;2022-09-09T07:03:59;0.80;;;0.80;;
4794;SDS011;2411;47.060;15.064;2022-09-09T07:06:37;4.70;;;0.90;;
4794;SDS011;2411;47.060;15.064;2022-09-09T07:09:07;0.83;;;0.70;;
4794;SDS011;2411;47.060;15.064;2022-09-09T07:11:42;0.80;;;0.70;;
4794;SDS011;2411;47.060;15.064;2022-09-09T07:14:11;0.83;;;0.83;;
4794;SDS011;2411;47.060;15.064;2022-09-09T07:16:40;3.93;;;1.07;;
4794;SDS011;2411;47.060;15.064;2022-09-09T07:19:08;0.93;;;0.77;;
4794;SDS011;2411;47.060;15.064;2022-09-09T07:21:35;5.30;;;0.90;;
4794;SDS011;2411;47.060;15.064;2022-09-09T07:24:03;0.83;;;0.83;;
4794;SDS011;2411;47.060;15.064;2022-09-09T07:26:33;3.40;;;0.70;;
4794;SDS011;2411;47.060;15.064;2022-09-09T07:29:01;1.73;;;0.60;;
4794;SDS011;2411;47.060;15.064;2022-09-09T07:31:29;1.90;;;0.90;;
4794;SDS011;2411;47.060;15.064;2022-09-09T07:33:58;1.23;;;0.80;;
4794;SDS011;2411;47.060;15.064;2022-09-09T07:36:27;3.07;;;0.77;;
4794;SDS011;2411;47.060;15.064;2022-09-09T07:39:00;0.60;;;0.60;;
4794;SDS011;2411;47.060;15.064;2022-09-09T07:41:30;0.77;;;0.60;;
4794;SDS011;2411;47.060;15.064;2022-09-09T07:44:04;0.63;;;0.63;;
4794;SDS011;2411;47.060;15.064;2022-09-09T07:46:37;1.90;;;0.80;;
4794;SDS011;2411;47.060;15.064;2022-09-09T07:49:06;0.73;;;0.73;;
4794;SDS011;2411;47.060;15.064;2022-09-09T07:51:35;0.87;;;0.80;;
4794;SDS011;2411;47.060;15.064;2022-09-09T07:54:08;1.87;;;0.83;;
4794;SDS011;2411;47.060;15.064;2022-09-09T07:56:37;1.53;;;0.90;;
4794;SDS011;2411;47.060;15.064;2022-09-09T07:59:05;2.97;;;0.90;;
4794;SDS011;2411;47.060;15.064;2022-09-09T08:01:34;0.70;;;0.60;;
4794;SDS011;2411;47.060;15.064;2022-09-09T08:04:22;0.77;;;0.77;;
4794;SDS011;2411;47.060;15.064;2022-09-09T08:06:50;1.03;;;0.70;;
4794;SDS011;2411;47.060;15.064;2022-09-09T08:09:19;1.07;;;0.97;;
4794;SDS011;2411;47.060;15.064;2022-09-09T08:11:47;2.23;;;0.70;;
4794;SDS011;2411;47.060;15.064;2022-09-09T08:14:14;0.80;;;0.70;;
4794;SDS011;2411;47.060;15.064;2022-09-09T08:16:42;7.83;;;1.30;;
4794;SDS011;2411;47.060;15.064;2022-09-09T08:19:11;4.97;;;0.83;;
4794;SDS011;2411;47.060;15.064;2022-09-09T08:21:39;2.60;;;0.97;;
4794;SDS011;2411;47.060;15.064;2022-09-09T08:24:07;1.10;;;0.90;;
4794;SDS011;2411;47.060;15.064;2022-09-09T08:26:38;2.60;;;0.83;;
4794;SDS011;2411;47.060;15.064;2022-09-09T08:29:08;3.77;;;1.30;;
4794;SDS011;2411;47.060;15.064;2022-09-09T08:31:37;4.43;;;1.30;;
4794;SDS011;2411;47.060;15.064;2022-09-09T08:34:10;8.50;;;0.90;;
4794;SDS011;2411;47.060;15.064;2022-09-09T08:36:43;5.57;;;1.10;;
4794;SDS011;2411;47.060;15.064;2022-09-09T08:39:12;1.27;;;0.90;;
4794;SDS011;2411;47.060;15.064;2022-09-09T08:55:39;1.00;;;0.90;;
4794;SDS011;2411;47.060;15.064;2022-09-09T08:58:12;6.60;;;1.27;;
4794;SDS011;2411;47.060;15.064;2022-09-09T09:08:38;3.97;;;1.30;;
4794;SDS011;2411;47.060;15.064;2022-09-09T09:11:17;2.80;;;1.13;;
4794;SDS011;2411;47.060;15.064;2022-09-09T09:16:34;2.50;;;1.30;;
4794;SDS011;2411;47.060;15.064;2022-09-09T09:19:25;9.40;;;2.00;;
4794;SDS011;2411;47.060;15.064;2022-09-09T09:25:12;5.23;;;2.53;;
4794;SDS011;2411;47.060;15.064;2022-09-09T09:27:59;8.10;;;3.47;;
4794;SDS011;2411;47.060;15.064;2022-09-09T09:30:39;4.30;;;2.80;;
4794;SDS011;2411;47.060;15.064;2022-09-09T09:33:15;14.00;;;2.57;;
4794;SDS011;2411;47.060;15.064;2022-09-09T09:35:42;3.37;;;2.03;;
4794;SDS011;2411;47.060;15.064;2022-09-09T09:38:15;5.00;;;2.10;;
4794;SDS011;2411;47.060;15.064;2022-09-09T09:41:08;6.13;;;2.03;;
4794;SDS011;2411;47.060;15.064;2022-09-09T09:43:36;2.87;;;2.10;;
4794;SDS011;2411;47.060;15.064;2022-09-09T09:46:19;3.00;;;0.90;;
4794;SDS011;2411;47.060;15.064;2022-09-09T09:49:04;7.50;;;1.63;;
4794;SDS011;2411;47.060;15.064;2022-09-09T09:51:35;1.73;;;1.37;;
4794;SDS011;2411;47.060;15.064;2022-09-09T09:54:13;8.30;;;2.00;;
4794;SDS011;2411;47.060;15.064;2022-09-09T09:56:44;6.57;;;2.17;;
4794;SDS011;2411;47.060;15.064;2022-09-09T10:07:32;5.87;;;1.77;;
4794;SDS011;2411;47.060;15.064;2022-09-09T10:10:00;6.03;;;1.63;;
4794;SDS011;2411;47.060;15.064;2022-09-09T10:22:51;6.20;;;1.40;;
4794;SDS011;2411;47.060;15.064;2022-09-09T10:33:32;8.00;;;2.10;;
4794;SDS011;2411;47.060;15.064;2022-09-09T10:49:59;3.27;;;1.80;;
4794;SDS011;2411;47.060;15.064;2022-09-09T10:53:35;4.40;;;1.70;;
4794;SDS011;2411;47.060;15.064;2022-09-09T10:56:13;6.37;;;1.83;;
4794;SDS011;2411;47.060;15.064;2022-09-09T10:58:52;11.77;;;1.80;;
4794;SDS011;2411;47.060;15.064;2022-09-09T11:01:44;8.53;;;2.23;;
4794;SDS011;2411;47.060;15.064;2022-09-09T11:04:21;5.33;;;2.10;;
4794;SDS011;2411;47.060;15.064;2022-09-09T11:06:55;5.50;;;1.97;;
4794;SDS011;2411;47.060;15.064;2022-09-09T11:09:23;4.17;;;1.50;;
4794;SDS011;2411;47.060;15.064;2022-09-09T11:11:55;6.10;;;2.40;;
4794;SDS011;2411;47.060;15.064;2022-09-09T11:14:36;14.10;;;2.10;;
4794;SDS011;2411;47.060;15.064;2022-09-09T11:17:13;4.43;;;1.77;;
4794;SDS011;2411;47.060;15.064;2022-09-09T11:19:44;2.67;;;2.37;;
4794;SDS011;2411;47.060;15.064;2022-09-09T11:22:16;1.60;;;1.50;;
4794;SDS011;2411;47.060;15.064;2022-09-09T11:32:53;1.30;;;0.97;;
4794;SDS011;2411;47.060;15.064;2022-09-09T11:35:38;0.80;;;0.80;;
4794;SDS011;2411;47.060;15.064;2022-09-09T11:41:06;1.43;;;0.80;;
4794;SDS011;2411;47.060;15.064;2022-09-09T11:43:39;0.60;;;0.60;;
4794;SDS011;2411;47.060;15.064;2022-09-09T11:46:07;1.03;;;0.60;;
4794;SDS011;2411;47.060;15.064;2022-09-09T11:51:12;4.33;;;0.80;;
4794;SDS011;2411;47.060;15.064;2022-09-09T11:53:55;0.80;;;0.70;;
4794;SDS011;2411;47.060;15.064;2022-09-09T11:56:29;0.87;;;0.60;;
4794;SDS011;2411;47.060;15.064;2022-09-09T11:58:59;2.17;;;1.97;;
4794;SDS011;2411;47.060;15.064;2022-09-09T12:01:35;1.13;;;0.90;;
4794;SDS011;2411;47.060;15.064;2022-09-09T12:04:14;0.87;;;0.70;;
4794;SDS011;2411;47.060;15.064;2022-09-09T12:06:51;0.63;;;0.63;;
4794;SDS011;2411;47.060;15.064;2022-09-09T12:12:06;0.70;;;0.70;;
4794;SDS011;2411;47.060;15.064;2022-09-09T12:17:21;1.97;;;1.10;;
4794;SDS011;2411;47.060;15.064;2022-09-09T12:20:06;0.73;;;0.73;;
4794;SDS011;2411;47.060;15.064;2022-09-09T12:30:54;4.40;;;1.00;;
4794;SDS011;2411;47.060;15.064;2022-09-09T12:33:48;0.70;;;0.70;;
4794;SDS011;2411;47.060;15.064;2022-09-09T12:36:23;10.50;;;0.90;;
4794;SDS011;2411;47.060;15.064;2022-09-09T12:38:55;1.93;;;1.10;;
4794;SDS011;2411;47.060;15.064;2022-09-09T12:41:26;4.13;;;0.93;;
4794;SDS011;2411;47.060;15.064;2022-09-09T12:44:08;2.27;;;1.20;;
4794;SDS011;2411;47.060;15.064;2022-09-09T12:46:37;3.33;;;1.00;;
4794;SDS011;2411;47.060;15.064;2022-09-09T12:49:25;1.00;;;0.70;;
4794;SDS011;2411;47.060;15.064;2022-09-09T12:52:07;4.50;;;1.30;;
4794;SDS011;2411;47.060;15.064;2022-09-09T12:54:45;1.10;;;0.90;;
4794;SDS011;2411;47.060;15.064;2022-09-09T12:57:13;1.87;;;1.00;;
4794;SDS011;2411;47.060;15.064;2022-09-09T12:59:42;1.03;;;0.90;;
4794;SDS011;2411;47.060;15.064;2022-09-09T13:02:16;1.80;;;1.13;;
4794;SDS011;2411;47.060;15.064;2022-09-09T13:04:45;0.70;;;0.70;;
4794;SDS011;2411;47.060;15.064;2022-09-09T13:07:13;0.90;;;0.80;;
4794;SDS011;2411;47.060;15.064;2022-09-09T13:09:43;1.77;;;1.00;;
4794;SDS011;2411;47.060;15.064;2022-09-09T13:12:20;0.97;;;0.87;;
4794;SDS011;2411;47.060;15.064;2022-09-09T13:14:49;2.07;;;0.97;;
4794;SDS011;2411;47.060;15.064;2022-09-09T13:17:24;3.13;;;1.03;;
4794;SDS011;2411;47.060;15.064;2022-09-09T13:19:53;1.63;;;1.00;;
4794;SDS011;2411;47.060;15.064;2022-09-09T13:27:33;1.47;;;1.10;;
4794;SDS011;2411;47.060;15.064;2022-09-09T13:30:19;2.90;;;0.83;;
4794;SDS011;2411;47.060;15.064;2022-09-09T13:35:47;2.00;;;1.00;;
4794;SDS011;2411;47.060;15.064;2022-09-09T13:38:16;2.03;;;1.07;;
4794;SDS011;2411;47.060;15.064;2022-09-09T13:43:51;1.40;;;0.90;;
4794;SDS011;2411;47.060;15.064;2022-09-09T13:54:04;3.17;;;1.07;;
4794;SDS011;2411;47.060;15.064;2022-09-09T13:56:36;1.10;;;1.00;;
4794;SDS011;2411;47.060;15.064;2022-09-09T13:59:05;2.73;;;1.07;;
4794;SDS011;2411;47.060;15.064;2022-09-09T14:01:36;2.83;;;1.63;;
4794;SDS011;2411;47.060;15.064;2022-09-09T14:04:03;5.37;;;1.50;;
4794;SDS011;2411;47.060;15.064;2022-09-09T14:06:34;3.37;;;1.53;;
4794;SDS011;2411;47.060;15.064;2022-09-09T14:09:05;7.93;;;1.07;;
4794;SDS011;2411;47.060;15.064;2022-09-09T14:11:33;3.00;;;0.90;;
4794;SDS011;2411;47.060;15.064;2022-09-09T14:14:00;2.53;;;1.10;;
4794;SDS011;2411;47.060;15.064;2022-09-09T14:16:28;1.63;;;1.23;;
4794;SDS011;2411;47.060;15.064;2022-09-09T14:18:55;1.80;;;0.90;;
4794;SDS011;2411;47.060;15.064;2022-09-09T14:21:23;7.30;;;1.80;;
4794;SDS011;2411;47.060;15.064;2022-09-09T14:23:50;8.83;;;1.83;;
4794;SDS011;2411;47.060;15.064;2022-09-09T14:26:19;4.90;;;1.20;;
4794;SDS011;2411;47.060;15.064;2022-09-09T14:28:49;1.20;;;0.90;;
4794;SDS011;2411;47.060;15.064;2022-09-09T14:31:22;3.30;;;1.00;;
4794;SDS011;2411;47.060;15.064;2022-09-09T14:33:49;1.30;;;0.90;;
4794;SDS011;2411;47.060;15.064;2022-09-09T14:36:17;1.20;;;1.10;;
4794;SDS011;2411;47.060;15.064;2022-09-09T14:38:44;1.43;;;1.33;;
4794;SDS011;2411;47.060;15.064;2022-09-09T14:41:12;1.40;;;0.80;;
4794;SDS011;2411;47.060;15.064;2022-09-09T14:43:44;2.33;;;0.80;;
4794;SDS011;2411;47.060;15.064;2022-09-09T14:46:13;3.03;;;0.80;;
4794;SDS011;2411;47.060;15.064;2022-09-09T14:48:45;1.00;;;0.90;;
4794;SDS011;2411;47.060;15.064;2022-09-09T14:51:16;3.17;;;1.10;;
4794;SDS011;2411;47.060;15.064;2022-09-09T14:53:45;1.20;;;1.10;;
4794;SDS011;2411;47.060;15.064;2022-09-09T14:56:16;1.13;;;1.00;;
4794;SDS011;2411;47.060;15.064;2022-09-09T14:58:45;1.40;;;1.00;;
4794;SDS011;2411;47.060;15.064;2022-09-09T15:01:13;3.23;;;1.10;;
4794;SDS011;2411;47.060;15.064;2022-09-09T15:03:43;2.20;;;1.40;;
4794;SDS011;2411;47.060;15.064;2022-09-09T15:06:18;4.10;;;1.30;;
4794;SDS011;2411;47.060;15.064;2022-09-09T15:08:47;1.67;;;0.80;;
4794;SDS011;2411;47.060;15.064;2022-09-09T15:11:16;3.37;;;0.80;;
4794;SDS011;2411;47.060;15.064;2022-09-09T15:13:43;1.40;;;1.20;;
4794;SDS011;2411;47.060;15.064;2022-09-09T15:16:11;4.77;;;1.00;;
4794;SDS011;2411;47.060;15.064;2022-09-09T15:18:43;5.60;;;1.40;;
4794;SDS011;2411;47.060;15.064;2022-09-09T15:21:11;4.67;;;1.23;;
4794;SDS011;2411;47.060;15.064;2022-09-09T15:23:40;2.50;;;1.20;;
4794;SDS011;2411;47.060;15.064;2022-09-09T15:26:07;0.90;;;0.90;;
4794;SDS011;2411;47.060;15.064;2022-09-09T15:28:35;1.60;;;1.00;;
4794;SDS011;2411;47.060;15.064;2022-09-09T15:31:05;2.50;;;1.40;;
4794;SDS011;2411;47.060;15.064;2022-09-09T15:33:34;0.93;;;0.90;;
4794;SDS011;2411;47.060;15.064;2022-09-09T15:36:13;0.87;;;0.87;;
4794;SDS011;2411;47.060;15.064;2022-09-09T15:38:41;1.20;;;1.07;;
4794;SDS011;2411;47.060;15.064;2022-09-09T15:41:08;2.40;;;1.00;;
4794;SDS011;2411;47.060;15.064;2022-09-09T15:43:35;1.00;;;1.00;;
4794;SDS011;2411;47.060;15.064;2022-09-09T15:46:06;1.00;;;0.83;;
4794;SDS011;2411;47.060;15.064;2022-09-09T15:48:43;1.90;;;0.90;;
4794;SDS011;2411;47.060;15.064;2022-09-09T15:51:14;1.53;;;1.00;;
4794;SDS011;2411;47.060;15.064;2022-09-09T15:54:01;3.40;;;1.27;;
4794;SDS011;2411;47.060;15.064;2022-09-09T15:56:28;5.03;;;1.40;;
4794;SDS011;2411;47.060;15.064;2022-09-09T15:58:59;3.37;;;1.50;;
4794;SDS011;2411;47.060;15.064;2022-09-09T16:01:26;3.43;;;1.53;;
4794;SDS011;2411;47.060;15.064;2022-09-09T16:03:54;3.87;;;2.60;;
4794;SDS011;2411;47.060;15.064;2022-09-09T16:06:21;9.30;;;1.70;;
4794;SDS011;2411;47.060;15.064;2022-09-09T16:08:50;5.50;;;2.00;;
4794;SDS011;2411;47.060;15.064;2022-09-09T16:11:19;10.77;;;1.53;;
4794;SDS011;2411;47.060;15.064;2022-09-09T16:13:48;0.93;;;0.90;;
4794;SDS011;2411;47.060;15.064;2022-09-09T16:16:17;4.50;;;1.17;;
4794;SDS011;2411;47.060;15.064;2022-09-09T16:18:49;2.27;;;1.10;;
4794;SDS011;2411;47.060;15.064;2022-09-09T16:23:46;2.00;;;1.10;;
4794;SDS011;2411;47.060;15.064;2022-09-09T16:26:15;2.30;;;1.20;;
4794;SDS011;2411;47.060;15.064;2022-09-09T16:28:44;1.33;;;1.20;;
4794;SDS011;2411;47.060;15.064;2022-09-09T16:31:15;2.13;;;1.20;;
4794;SDS011;2411;47.060;15.064;2022-09-09T16:33:44;1.30;;;1.20;;
4794;SDS011;2411;47.060;15.064;2022-09-09T16:36:15;3.50;;;1.30;;
4794;SDS011;2411;47.060;15.064;2022-09-09T16:38:44;1.20;;;1.10;;
4794;SDS011;2411;47.060;15.064;2022-09-09T16:41:11;0.97;;;0.97;;
4794;SDS011;2411;47.060;15.064;2022-09-09T16:43:40;2.00;;;1.00;;
4794;SDS011;2411;47.060;15.064;2022-09-09T16:46:14;2.50;;;1.37;;
4794;SDS011;2411;47.060;15.064;2022-09-09T16:48:46;1.10;;;1.00;;
4794;SDS011;2411;47.060;15.064;2022-09-09T16:51:15;1.60;;;1.50;;
4794;SDS011;2411;47.060;15.064;2022-09-09T16:53:44;2.60;;;1.63;;
4794;SDS011;2411;47.060;15.064;2022-09-09T16:56:12;3.17;;;1.80;;
4794;SDS011;2411;47.060;15.064;2022-09-09T16:58:41;8.93;;;1.20;;
4794;SDS011;2411;47.060;15.064;2022-09-09T17:01:12;1.13;;;1.13;;
4794;SDS011;2411;47.060;15.064;2022-09-09T17:03:40;1.53;;;0.93;;
4794;SDS011;2411;47.060;15.064;2022-09-09T17:06:14;2.10;;;1.17;;
4794;SDS011;2411;47.060;15.064;2022-09-09T17:08:41;2.63;;;1.03;;
4794;SDS011;2411;47.060;15.064;2022-09-09T17:11:12;4.77;;;1.30;;
4794;SDS011;2411;47.060;15.064;2022-09-09T17:13:41;5.10;;;1.30;;
4794;SDS011;2411;47.060;15.064;2022-09-09T17:16:09;2.93;;;1.33;;
4794;SDS011;2411;47.060;15.064;2022-09-09T17:18:36;7.57;;;1.23;;
4794;SDS011;2411;47.060;15.064;2022-09-09T17:21:04;1.43;;;1.30;;
4794;SDS011;2411;47.060;15.064;2022-09-09T17:23:35;1.33;;;1.00;;
4794;SDS011;2411;47.060;15.064;2022-09-09T17:26:06;6.70;;;3.07;;
4794;SDS011;2411;47.060;15.064;2022-09-09T17:28:37;2.67;;;2.47;;
4794;SDS011;2411;47.060;15.064;2022-09-09T17:31:05;6.53;;;2.23;;
4794;SDS011;2411;47.060;15.064;2022-09-09T17:33:34;2.00;;;1.33;;
4794;SDS011;2411;47.060;15.064;2022-09-09T17:36:06;4.40;;;1.20;;
4794;SDS011;2411;47.060;15.064;2022-09-09T17:38:35;4.10;;;0.80;;
4794;SDS011;2411;47.060;15.064;2022-09-09T17:43:34;1.83;;;1.10;;
4794;SDS011;2411;47.060;15.064;2022-09-09T17:46:11;0.80;;;0.80;;
4794;SDS011;2411;47.060;15.064;2022-09-09T17:48:40;0.80;;;0.80;;
4794;SDS011;2411;47.060;15.064;2022-09-09T17:51:09;0.93;;;0.60;;
4794;SDS011;2411;47.060;15.064;2022-09-09T17:53:41;1.03;;;0.90;;
4794;SDS011;2411;47.060;15.064;2022-09-09T17:56:10;1.27;;;0.90;;
4794;SDS011;2411;47.060;15.064;2022-09-09T17:58:39;2.73;;;0.97;;
4794;SDS011;2411;47.060;15.064;2022-09-09T18:01:07;0.80;;;0.70;;
4794;SDS011;2411;47.060;15.064;2022-09-09T18:03:38;2.00;;;0.70;;
4794;SDS011;2411;47.060;15.064;2022-09-09T18:06:07;0.60;;;0.60;;
4794;SDS011;2411;47.060;15.064;2022-09-09T18:08:35;0.70;;;0.67;;
4794;SDS011;2411;47.060;15.064;2022-09-09T18:11:02;2.20;;;0.60;;
4794;SDS011;2411;47.060;15.064;2022-09-09T18:13:29;2.77;;;0.67;;
4794;SDS011;2411;47.060;15.064;2022-09-09T18:15:57;1.67;;;0.80;;
4794;SDS011;2411;47.060;15.064;2022-09-09T18:18:24;8.63;;;0.70;;
4794;SDS011;2411;47.060;15.064;2022-09-09T18:21:05;0.57;;;0.57;;
4794;SDS011;2411;47.060;15.064;2022-09-09T18:23:34;0.60;;;0.60;;